sensor_id;sensor_type;location;lat;lon;timestamp;temperature;humidity
10722;DHT22;5412;59.450;18.124;2023-06-14T00:00:17;17.50;99.90
10722;DHT22;5412;59.450;18.124;2023-06-14T00:02:43;17.50;99.90
10722;DHT22;5412;59.450;18.124;2023-06-14T00:05:09;17.40;99.90
10722;DHT22;5412;59.450;18.124;2023-06-14T00:07:41;17.40;99.90
10722;DHT22;5412;59.450;18.124;2023-06-14T00:10:11;17.40;99.90
10722;DHT22;5412;59.450;18.124;2023-06-14T00:12:38;17.40;99.90
10722;DHT22;5412;59.450;18.124;2023-06-14T00:15:04;17.30;99.90
10722;DHT22;5412;59.450;18.124;2023-06-14T00:17:31;17.30;99.90
10722;DHT22;5412;59.450;18.124;2023-06-14T00:19:58;17.40;99.90
10722;DHT22;5412;59.450;18.124;2023-06-14T00:22:24;17.40;99.90
10722;DHT22;5412;59.450;18.124;2023-06-14T00:24:51;17.40;99.90
10722;DHT22;5412;59.450;18.124;2023-06-14T00:27:17;17.30;99.90
10722;DHT22;5412;59.450;18.124;2023-06-14T00:29:42;17.30;99.90
10722;DHT22;5412;59.450;18.124;2023-06-14T00:32:08;17.30;99.90
10722;DHT22;5412;59.450;18.124;2023-06-14T00:34:34;17.30;99.90
10722;DHT22;5412;59.450;18.124;2023-06-14T00:37:00;17.30;99.90
10722;DHT22;5412;59.450;18.124;2023-06-14T00:39:26;17.20;99.90
10722;DHT22;5412;59.450;18.124;2023-06-14T00:41:52;17.20;99.90
10722;DHT22;5412;59.450;18.124;2023-06-14T00:44:18;17.20;99.90
10722;DHT22;5412;59.450;18.124;2023-06-14T00:46:45;17.20;99.90
10722;DHT22;5412;59.450;18.124;2023-06-14T00:49:12;17.10;99.90
10722;DHT22;5412;59.450;18.124;2023-06-14T00:51:41;17.10;99.90
10722;DHT22;5412;59.450;18.124;2023-06-14T00:54:07;17.10;99.90
10722;DHT22;5412;59.450;18.124;2023-06-14T00:56:32;17.00;99.90
10722;DHT22;5412;59.450;18.124;2023-06-14T00:58:58;17.00;99.90
10722;DHT22;5412;59.450;18.124;2023-06-14T01:01:24;17.00;99.90
10722;DHT22;5412;59.450;18.124;2023-06-14T01:03:50;17.00;99.90
10722;DHT22;5412;59.450;18.124;2023-06-14T01:06:31;16.90;99.90
10722;DHT22;5412;59.450;18.124;2023-06-14T01:12:07;16.90;99.90
10722;DHT22;5412;59.450;18.124;2023-06-14T01:14:36;16.70;99.90
10722;DHT22;5412;59.450;18.124;2023-06-14T01:17:03;16.80;99.90
10722;DHT22;5412;59.450;18.124;2023-06-14T01:19:30;16.70;99.90
10722;DHT22;5412;59.450;18.124;2023-06-14T01:21:57;16.70;99.90
10722;DHT22;5412;59.450;18.124;2023-06-14T01:24:26;16.70;99.90
10722;DHT22;5412;59.450;18.124;2023-06-14T01:26:58;16.70;99.90
10722;DHT22;5412;59.450;18.124;2023-06-14T01:29:25;16.70;99.90
10722;DHT22;5412;59.450;18.124;2023-06-14T01:31:53;16.70;99.90
10722;DHT22;5412;59.450;18.124;2023-06-14T01:34:20;16.60;99.90
10722;DHT22;5412;59.450;18.124;2023-06-14T01:36:46;16.70;99.90
10722;DHT22;5412;59.450;18.124;2023-06-14T01:39:14;16.70;99.90
10722;DHT22;5412;59.450;18.124;2023-06-14T01:41:41;16.80;99.90
10722;DHT22;5412;59.450;18.124;2023-06-14T01:44:08;16.80;99.90
10722;DHT22;5412;59.450;18.124;2023-06-14T01:46:35;16.80;99.90
10722;DHT22;5412;59.450;18.124;2023-06-14T01:49:01;16.80;99.90
10722;DHT22;5412;59.450;18.124;2023-06-14T01:51:27;16.80;99.90
10722;DHT22;5412;59.450;18.124;2023-06-14T01:53:53;16.80;99.90
10722;DHT22;5412;59.450;18.124;2023-06-14T01:56:19;16.80;99.90
10722;DHT22;5412;59.450;18.124;2023-06-14T01:58:45;16.90;99.90
10722;DHT22;5412;59.450;18.124;2023-06-14T02:01:11;16.80;99.90
10722;DHT22;5412;59.450;18.124;2023-06-14T02:03:38;16.80;99.90
10722;DHT22;5412;59.450;18.124;2023-06-14T02:06:04;16.90;99.90
10722;DHT22;5412;59.450;18.124;2023-06-14T02:08:30;16.90;99.90
10722;DHT22;5412;59.450;18.124;2023-06-14T02:10:55;17.00;99.90
10722;DHT22;5412;59.450;18.124;2023-06-14T02:13:21;16.90;99.90
10722;DHT22;5412;59.450;18.124;2023-06-14T02:15:47;16.90;99.90
10722;DHT22;5412;59.450;18.124;2023-06-14T02:18:16;16.90;99.90
10722;DHT22;5412;59.450;18.124;2023-06-14T02:20:42;16.80;99.90
10722;DHT22;5412;59.450;18.124;2023-06-14T02:23:08;16.70;99.90
10722;DHT22;5412;59.450;18.124;2023-06-14T02:25:33;16.60;99.90
10722;DHT22;5412;59.450;18.124;2023-06-14T02:28:00;16.60;99.90
10722;DHT22;5412;59.450;18.124;2023-06-14T02:30:26;16.60;99.90
10722;DHT22;5412;59.450;18.124;2023-06-14T02:32:51;16.50;99.90
10722;DHT22;5412;59.450;18.124;2023-06-14T02:35:18;16.40;99.90
10722;DHT22;5412;59.450;18.124;2023-06-14T02:37:46;16.40;99.90
10722;DHT22;5412;59.450;18.124;2023-06-14T02:40:12;16.60;99.90
10722;DHT22;5412;59.450;18.124;2023-06-14T02:42:37;16.60;99.90
10722;DHT22;5412;59.450;18.124;2023-06-14T02:45:03;16.70;99.90
10722;DHT22;5412;59.450;18.124;2023-06-14T02:47:29;16.60;99.90
10722;DHT22;5412;59.450;18.124;2023-06-14T02:49:55;16.70;99.90
10722;DHT22;5412;59.450;18.124;2023-06-14T02:52:21;16.80;99.90
10722;DHT22;5412;59.450;18.124;2023-06-14T02:54:47;16.80;99.90
10722;DHT22;5412;59.450;18.124;2023-06-14T02:57:13;16.80;99.90
10722;DHT22;5412;59.450;18.124;2023-06-14T02:59:38;16.80;99.90
10722;DHT22;5412;59.450;18.124;2023-06-14T03:02:05;16.80;99.90
10722;DHT22;5412;59.450;18.124;2023-06-14T03:04:30;16.80;99.90
10722;DHT22;5412;59.450;18.124;2023-06-14T03:07:00;16.80;99.90
10722;DHT22;5412;59.450;18.124;2023-06-14T03:09:28;16.90;99.90
10722;DHT22;5412;59.450;18.124;2023-06-14T03:11:54;16.80;99.90
10722;DHT22;5412;59.450;18.124;2023-06-14T03:14:20;16.80;99.90
10722;DHT22;5412;59.450;18.124;2023-06-14T03:16:46;17.00;99.90
10722;DHT22;5412;59.450;18.124;2023-06-14T03:19:12;17.20;99.90
10722;DHT22;5412;59.450;18.124;2023-06-14T03:21:38;17.30;99.90
10722;DHT22;5412;59.450;18.124;2023-06-14T03:24:08;17.20;99.90
10722;DHT22;5412;59.450;18.124;2023-06-14T03:26:34;17.20;99.90
10722;DHT22;5412;59.450;18.124;2023-06-14T03:29:02;17.30;99.90
10722;DHT22;5412;59.450;18.124;2023-06-14T03:31:29;17.30;99.90
10722;DHT22;5412;59.450;18.124;2023-06-14T03:33:58;17.40;99.90
10722;DHT22;5412;59.450;18.124;2023-06-14T03:36:24;17.40;99.90
10722;DHT22;5412;59.450;18.124;2023-06-14T03:38:51;17.40;99.90
10722;DHT22;5412;59.450;18.124;2023-06-14T03:41:16;17.40;99.90
10722;DHT22;5412;59.450;18.124;2023-06-14T03:43:42;17.60;99.90
10722;DHT22;5412;59.450;18.124;2023-06-14T03:46:08;17.60;99.90
10722;DHT22;5412;59.450;18.124;2023-06-14T03:48:33;17.60;99.90
10722;DHT22;5412;59.450;18.124;2023-06-14T03:50:59;17.70;99.90
10722;DHT22;5412;59.450;18.124;2023-06-14T03:53:25;17.60;99.90
10722;DHT22;5412;59.450;18.124;2023-06-14T03:55:53;17.60;99.90
10722;DHT22;5412;59.450;18.124;2023-06-14T03:58:19;17.70;99.90
10722;DHT22;5412;59.450;18.124;2023-06-14T04:00:45;17.70;99.90
10722;DHT22;5412;59.450;18.124;2023-06-14T04:03:11;17.80;99.90
10722;DHT22;5412;59.450;18.124;2023-06-14T04:05:39;17.70;99.90
10722;DHT22;5412;59.450;18.124;2023-06-14T04:08:08;17.70;99.90
10722;DHT22;5412;59.450;18.124;2023-06-14T04:10:40;17.70;99.90
10722;DHT22;5412;59.450;18.124;2023-06-14T04:13:06;17.70;99.90
10722;DHT22;5412;59.450;18.124;2023-06-14T04:15:32;17.70;99.90
10722;DHT22;5412;59.450;18.124;2023-06-14T04:17:59;17.60;99.90
10722;DHT22;5412;59.450;18.124;2023-06-14T04:20:25;17.60;99.90
10722;DHT22;5412;59.450;18.124;2023-06-14T04:22:51;17.70;99.90
10722;DHT22;5412;59.450;18.124;2023-06-14T04:25:18;17.70;99.90
10722;DHT22;5412;59.450;18.124;2023-06-14T04:27:44;17.70;99.90
10722;DHT22;5412;59.450;18.124;2023-06-14T04:30:10;17.80;99.90
10722;DHT22;5412;59.450;18.124;2023-06-14T04:32:36;17.90;99.90
10722;DHT22;5412;59.450;18.124;2023-06-14T04:35:06;17.90;99.90
10722;DHT22;5412;59.450;18.124;2023-06-14T04:37:32;18.00;99.90
10722;DHT22;5412;59.450;18.124;2023-06-14T04:39:58;18.10;99.90
10722;DHT22;5412;59.450;18.124;2023-06-14T04:42:25;18.20;99.90
10722;DHT22;5412;59.450;18.124;2023-06-14T04:44:55;18.40;99.90
10722;DHT22;5412;59.450;18.124;2023-06-14T04:47:21;18.50;99.90
10722;DHT22;5412;59.450;18.124;2023-06-14T04:49:48;18.70;99.90
10722;DHT22;5412;59.450;18.124;2023-06-14T04:52:16;18.90;99.90
10722;DHT22;5412;59.450;18.124;2023-06-14T04:54:42;19.10;99.90
10722;DHT22;5412;59.450;18.124;2023-06-14T04:57:09;19.30;99.90
10722;DHT22;5412;59.450;18.124;2023-06-14T04:59:40;19.50;99.90
10722;DHT22;5412;59.450;18.124;2023-06-14T05:02:05;19.70;99.90
10722;DHT22;5412;59.450;18.124;2023-06-14T05:04:33;19.90;99.90
10722;DHT22;5412;59.450;18.124;2023-06-14T05:06:59;20.10;99.90
10722;DHT22;5412;59.450;18.124;2023-06-14T05:09:25;20.10;99.90
10722;DHT22;5412;59.450;18.124;2023-06-14T05:11:50;20.20;99.90
10722;DHT22;5412;59.450;18.124;2023-06-14T05:14:16;20.30;99.90
10722;DHT22;5412;59.450;18.124;2023-06-14T05:16:43;20.40;99.90
10722;DHT22;5412;59.450;18.124;2023-06-14T05:19:09;20.50;99.90
10722;DHT22;5412;59.450;18.124;2023-06-14T05:21:36;20.60;99.90
10722;DHT22;5412;59.450;18.124;2023-06-14T05:24:02;20.70;99.90
10722;DHT22;5412;59.450;18.124;2023-06-14T05:26:28;20.70;99.90
10722;DHT22;5412;59.450;18.124;2023-06-14T05:28:57;20.90;99.90
10722;DHT22;5412;59.450;18.124;2023-06-14T05:31:24;21.00;99.90
10722;DHT22;5412;59.450;18.124;2023-06-14T05:33:51;21.00;99.90
10722;DHT22;5412;59.450;18.124;2023-06-14T05:36:17;21.10;99.90
10722;DHT22;5412;59.450;18.124;2023-06-14T05:38:44;21.10;99.90
10722;DHT22;5412;59.450;18.124;2023-06-14T05:41:10;21.10;99.90
10722;DHT22;5412;59.450;18.124;2023-06-14T05:43:36;21.10;99.90
10722;DHT22;5412;59.450;18.124;2023-06-14T05:46:05;21.20;99.90
10722;DHT22;5412;59.450;18.124;2023-06-14T05:48:31;21.30;99.90
10722;DHT22;5412;59.450;18.124;2023-06-14T05:50:56;21.40;99.90
10722;DHT22;5412;59.450;18.124;2023-06-14T05:53:22;21.40;99.90
10722;DHT22;5412;59.450;18.124;2023-06-14T05:55:49;21.30;99.90
10722;DHT22;5412;59.450;18.124;2023-06-14T05:58:15;21.20;99.90
10722;DHT22;5412;59.450;18.124;2023-06-14T06:00:41;21.20;99.90
10722;DHT22;5412;59.450;18.124;2023-06-14T06:03:07;21.20;99.90
10722;DHT22;5412;59.450;18.124;2023-06-14T06:05:36;21.20;99.90
10722;DHT22;5412;59.450;18.124;2023-06-14T06:08:05;21.20;99.90
10722;DHT22;5412;59.450;18.124;2023-06-14T06:10:31;21.20;99.90
10722;DHT22;5412;59.450;18.124;2023-06-14T06:12:56;21.30;99.90
10722;DHT22;5412;59.450;18.124;2023-06-14T06:15:22;21.30;99.90
10722;DHT22;5412;59.450;18.124;2023-06-14T06:17:48;21.30;99.90
10722;DHT22;5412;59.450;18.124;2023-06-14T06:20:14;21.30;99.90
10722;DHT22;5412;59.450;18.124;2023-06-14T06:22:39;21.40;99.90
10722;DHT22;5412;59.450;18.124;2023-06-14T06:25:06;21.50;99.90
10722;DHT22;5412;59.450;18.124;2023-06-14T06:27:32;21.50;99.90
10722;DHT22;5412;59.450;18.124;2023-06-14T06:29:58;21.60;99.90
10722;DHT22;5412;59.450;18.124;2023-06-14T06:32:23;21.80;99.90
10722;DHT22;5412;59.450;18.124;2023-06-14T06:34:49;22.10;99.90
10722;DHT22;5412;59.450;18.124;2023-06-14T06:37:15;22.20;99.90
10722;DHT22;5412;59.450;18.124;2023-06-14T06:39:41;22.30;99.90
10722;DHT22;5412;59.450;18.124;2023-06-14T06:42:07;22.20;99.90
10722;DHT22;5412;59.450;18.124;2023-06-14T06:44:33;22.30;99.90
10722;DHT22;5412;59.450;18.124;2023-06-14T06:46:58;22.40;99.80
10722;DHT22;5412;59.450;18.124;2023-06-14T06:49:24;22.60;99.80
10722;DHT22;5412;59.450;18.124;2023-06-14T06:52:03;22.90;99.90
10722;DHT22;5412;59.450;18.124;2023-06-14T06:54:30;22.90;98.60
10722;DHT22;5412;59.450;18.124;2023-06-14T06:56:56;22.90;97.40
10722;DHT22;5412;59.450;18.124;2023-06-14T06:59:22;23.00;97.60
10722;DHT22;5412;59.450;18.124;2023-06-14T07:01:48;23.00;97.40
10722;DHT22;5412;59.450;18.124;2023-06-14T07:04:14;23.20;97.50
10722;DHT22;5412;59.450;18.124;2023-06-14T07:06:41;23.30;97.40
10722;DHT22;5412;59.450;18.124;2023-06-14T07:09:07;23.60;97.50
10722;DHT22;5412;59.450;18.124;2023-06-14T07:11:40;23.80;97.10
10722;DHT22;5412;59.450;18.124;2023-06-14T07:14:06;23.90;96.80
10722;DHT22;5412;59.450;18.124;2023-06-14T07:16:32;24.00;97.50
10722;DHT22;5412;59.450;18.124;2023-06-14T07:18:58;24.10;96.70
10722;DHT22;5412;59.450;18.124;2023-06-14T07:21:24;24.40;96.50
10722;DHT22;5412;59.450;18.124;2023-06-14T07:23:54;24.50;96.10
10722;DHT22;5412;59.450;18.124;2023-06-14T07:26:21;24.40;95.50
10722;DHT22;5412;59.450;18.124;2023-06-14T07:28:47;24.60;94.50
10722;DHT22;5412;59.450;18.124;2023-06-14T07:31:14;24.80;94.70
10722;DHT22;5412;59.450;18.124;2023-06-14T07:33:41;25.00;94.70
10722;DHT22;5412;59.450;18.124;2023-06-14T07:36:07;24.90;94.10
10722;DHT22;5412;59.450;18.124;2023-06-14T07:38:33;25.00;93.90
10722;DHT22;5412;59.450;18.124;2023-06-14T07:40:59;25.20;93.20
10722;DHT22;5412;59.450;18.124;2023-06-14T07:43:25;25.30;92.40
10722;DHT22;5412;59.450;18.124;2023-06-14T07:45:51;25.40;94.40
10722;DHT22;5412;59.450;18.124;2023-06-14T07:48:16;25.60;95.20
10722;DHT22;5412;59.450;18.124;2023-06-14T07:50:42;25.80;95.00
10722;DHT22;5412;59.450;18.124;2023-06-14T07:53:08;25.60;90.10
10722;DHT22;5412;59.450;18.124;2023-06-14T07:55:34;25.60;93.00
10722;DHT22;5412;59.450;18.124;2023-06-14T07:58:03;25.40;91.10
10722;DHT22;5412;59.450;18.124;2023-06-14T08:00:28;25.70;90.50
10722;DHT22;5412;59.450;18.124;2023-06-14T08:02:54;25.60;90.50
10722;DHT22;5412;59.450;18.124;2023-06-14T08:05:27;25.80;90.00
10722;DHT22;5412;59.450;18.124;2023-06-14T08:07:54;26.10;90.40
10722;DHT22;5412;59.450;18.124;2023-06-14T08:10:21;26.10;89.20
10722;DHT22;5412;59.450;18.124;2023-06-14T08:12:47;26.30;89.20
10722;DHT22;5412;59.450;18.124;2023-06-14T08:15:14;26.40;89.20
10722;DHT22;5412;59.450;18.124;2023-06-14T08:17:41;26.30;89.20
10722;DHT22;5412;59.450;18.124;2023-06-14T08:20:08;26.30;90.00
10722;DHT22;5412;59.450;18.124;2023-06-14T08:22:34;26.40;91.20
10722;DHT22;5412;59.450;18.124;2023-06-14T08:25:00;26.50;91.40
10722;DHT22;5412;59.450;18.124;2023-06-14T08:27:26;26.60;90.20
10722;DHT22;5412;59.450;18.124;2023-06-14T08:29:52;26.70;90.20
10722;DHT22;5412;59.450;18.124;2023-06-14T08:32:18;26.70;87.50
10722;DHT22;5412;59.450;18.124;2023-06-14T08:34:44;26.70;88.30
10722;DHT22;5412;59.450;18.124;2023-06-14T08:37:10;26.90;89.10
10722;DHT22;5412;59.450;18.124;2023-06-14T08:39:36;26.90;85.90
10722;DHT22;5412;59.450;18.124;2023-06-14T08:42:03;26.90;85.10
10722;DHT22;5412;59.450;18.124;2023-06-14T08:44:30;27.00;83.90
10722;DHT22;5412;59.450;18.124;2023-06-14T08:46:56;27.10;84.60
10722;DHT22;5412;59.450;18.124;2023-06-14T08:49:25;27.00;84.70
10722;DHT22;5412;59.450;18.124;2023-06-14T08:51:58;27.10;84.30
10722;DHT22;5412;59.450;18.124;2023-06-14T08:54:25;27.00;83.80
10722;DHT22;5412;59.450;18.124;2023-06-14T08:56:53;27.20;84.80
10722;DHT22;5412;59.450;18.124;2023-06-14T08:59:24;27.00;82.60
10722;DHT22;5412;59.450;18.124;2023-06-14T09:01:51;27.20;83.90
10722;DHT22;5412;59.450;18.124;2023-06-14T09:04:18;27.10;82.90
10722;DHT22;5412;59.450;18.124;2023-06-14T09:06:45;27.00;82.90
10722;DHT22;5412;59.450;18.124;2023-06-14T09:09:11;27.20;83.20
10722;DHT22;5412;59.450;18.124;2023-06-14T09:11:37;27.40;80.90
10722;DHT22;5412;59.450;18.124;2023-06-14T09:14:03;27.30;83.00
10722;DHT22;5412;59.450;18.124;2023-06-14T09:16:32;27.50;81.60
10722;DHT22;5412;59.450;18.124;2023-06-14T09:18:58;27.50;80.70
10722;DHT22;5412;59.450;18.124;2023-06-14T09:21:24;27.50;80.70
10722;DHT22;5412;59.450;18.124;2023-06-14T09:23:51;27.50;78.60
10722;DHT22;5412;59.450;18.124;2023-06-14T09:26:18;27.30;78.30
10722;DHT22;5412;59.450;18.124;2023-06-14T09:28:50;27.30;80.40
10722;DHT22;5412;59.450;18.124;2023-06-14T09:31:20;27.20;82.40
10722;DHT22;5412;59.450;18.124;2023-06-14T09:33:47;27.30;81.90
10722;DHT22;5412;59.450;18.124;2023-06-14T09:36:23;27.30;81.60
10722;DHT22;5412;59.450;18.124;2023-06-14T09:38:54;27.50;81.30
10722;DHT22;5412;59.450;18.124;2023-06-14T09:41:20;27.70;81.70
10722;DHT22;5412;59.450;18.124;2023-06-14T09:43:49;27.70;79.00
10722;DHT22;5412;59.450;18.124;2023-06-14T09:46:15;27.60;77.50
10722;DHT22;5412;59.450;18.124;2023-06-14T09:48:41;27.70;79.20
10722;DHT22;5412;59.450;18.124;2023-06-14T09:51:10;27.50;77.00
10722;DHT22;5412;59.450;18.124;2023-06-14T09:53:41;27.50;76.00
10722;DHT22;5412;59.450;18.124;2023-06-14T09:56:07;27.60;76.60
10722;DHT22;5412;59.450;18.124;2023-06-14T09:58:37;27.70;75.50
10722;DHT22;5412;59.450;18.124;2023-06-14T10:01:07;27.70;74.60
10722;DHT22;5412;59.450;18.124;2023-06-14T10:03:37;27.80;74.10
10722;DHT22;5412;59.450;18.124;2023-06-14T10:06:05;27.80;74.90
10722;DHT22;5412;59.450;18.124;2023-06-14T10:08:36;27.80;74.50
10722;DHT22;5412;59.450;18.124;2023-06-14T10:11:02;27.90;74.60
10722;DHT22;5412;59.450;18.124;2023-06-14T10:13:31;27.80;73.70
10722;DHT22;5412;59.450;18.124;2023-06-14T10:16:16;27.80;74.40
10722;DHT22;5412;59.450;18.124;2023-06-14T10:18:59;27.80;73.00
10722;DHT22;5412;59.450;18.124;2023-06-14T10:24:18;27.50;71.60
10722;DHT22;5412;59.450;18.124;2023-06-14T10:26:56;27.60;72.30
10722;DHT22;5412;59.450;18.124;2023-06-14T10:29:22;27.80;72.80
10722;DHT22;5412;59.450;18.124;2023-06-14T10:31:50;27.70;71.90
10722;DHT22;5412;59.450;18.124;2023-06-14T10:34:26;27.90;72.10
10722;DHT22;5412;59.450;18.124;2023-06-14T10:37:03;28.00;71.40
10722;DHT22;5412;59.450;18.124;2023-06-14T10:39:29;27.90;70.60
10722;DHT22;5412;59.450;18.124;2023-06-14T10:41:57;27.90;72.20
10722;DHT22;5412;59.450;18.124;2023-06-14T10:46:57;27.90;69.60
10722;DHT22;5412;59.450;18.124;2023-06-14T10:50:10;27.80;70.30
10722;DHT22;5412;59.450;18.124;2023-06-14T10:52:41;27.50;69.20
10722;DHT22;5412;59.450;18.124;2023-06-14T10:57:44;27.20;70.20
10722;DHT22;5412;59.450;18.124;2023-06-14T11:00:12;27.20;70.00
10722;DHT22;5412;59.450;18.124;2023-06-14T11:05:27;27.10;70.60
10722;DHT22;5412;59.450;18.124;2023-06-14T11:11:00;27.00;71.20
10722;DHT22;5412;59.450;18.124;2023-06-14T11:13:26;27.20;69.70
10722;DHT22;5412;59.450;18.124;2023-06-14T11:15:52;27.20;69.70
10722;DHT22;5412;59.450;18.124;2023-06-14T11:18:19;27.10;69.80
10722;DHT22;5412;59.450;18.124;2023-06-14T11:20:49;27.00;69.30
10722;DHT22;5412;59.450;18.124;2023-06-14T11:23:15;27.00;69.00
10722;DHT22;5412;59.450;18.124;2023-06-14T11:25:41;26.90;69.40
10722;DHT22;5412;59.450;18.124;2023-06-14T11:28:07;26.90;68.60
10722;DHT22;5412;59.450;18.124;2023-06-14T11:30:33;27.10;68.80
10722;DHT22;5412;59.450;18.124;2023-06-14T11:32:59;27.00;68.30
10722;DHT22;5412;59.450;18.124;2023-06-14T11:35:25;27.00;68.60
10722;DHT22;5412;59.450;18.124;2023-06-14T11:37:55;26.80;67.90
10722;DHT22;5412;59.450;18.124;2023-06-14T11:40:24;26.90;68.90
10722;DHT22;5412;59.450;18.124;2023-06-14T11:42:53;27.00;68.40
10722;DHT22;5412;59.450;18.124;2023-06-14T11:45:23;27.00;67.00
10722;DHT22;5412;59.450;18.124;2023-06-14T11:47:48;26.90;66.80
10722;DHT22;5412;59.450;18.124;2023-06-14T11:50:14;26.80;67.10
10722;DHT22;5412;59.450;18.124;2023-06-14T11:52:40;26.80;67.20
10722;DHT22;5412;59.450;18.124;2023-06-14T11:55:06;27.00;68.30
10722;DHT22;5412;59.450;18.124;2023-06-14T11:57:35;27.10;67.30
10722;DHT22;5412;59.450;18.124;2023-06-14T12:00:06;27.20;66.30
10722;DHT22;5412;59.450;18.124;2023-06-14T12:02:41;27.30;66.20
10722;DHT22;5412;59.450;18.124;2023-06-14T12:05:07;27.30;66.50
10722;DHT22;5412;59.450;18.124;2023-06-14T12:07:36;27.50;65.70
10722;DHT22;5412;59.450;18.124;2023-06-14T12:12:28;27.90;64.30
10722;DHT22;5412;59.450;18.124;2023-06-14T12:14:57;27.90;63.40
10722;DHT22;5412;59.450;18.124;2023-06-14T12:17:22;27.90;62.50
10722;DHT22;5412;59.450;18.124;2023-06-14T12:19:49;27.90;62.60
10722;DHT22;5412;59.450;18.124;2023-06-14T12:22:16;28.10;63.00
10722;DHT22;5412;59.450;18.124;2023-06-14T12:24:45;28.20;62.30
10722;DHT22;5412;59.450;18.124;2023-06-14T12:27:11;28.50;63.40
10722;DHT22;5412;59.450;18.124;2023-06-14T12:29:42;28.30;62.50
10722;DHT22;5412;59.450;18.124;2023-06-14T12:32:11;28.10;63.10
10722;DHT22;5412;59.450;18.124;2023-06-14T12:34:37;28.40;62.50
10722;DHT22;5412;59.450;18.124;2023-06-14T12:37:03;28.60;62.10
10722;DHT22;5412;59.450;18.124;2023-06-14T12:39:30;28.70;62.20
10722;DHT22;5412;59.450;18.124;2023-06-14T12:41:58;28.70;61.20
10722;DHT22;5412;59.450;18.124;2023-06-14T12:44:24;28.70;61.30
10722;DHT22;5412;59.450;18.124;2023-06-14T12:46:50;29.00;61.00
10722;DHT22;5412;59.450;18.124;2023-06-14T12:49:19;29.10;61.00
10722;DHT22;5412;59.450;18.124;2023-06-14T12:51:46;29.20;60.50
10722;DHT22;5412;59.450;18.124;2023-06-14T12:54:12;29.40;59.70
10722;DHT22;5412;59.450;18.124;2023-06-14T12:56:38;29.40;58.90
10722;DHT22;5412;59.450;18.124;2023-06-14T12:59:03;29.60;58.80
10722;DHT22;5412;59.450;18.124;2023-06-14T13:01:29;29.70;58.40
10722;DHT22;5412;59.450;18.124;2023-06-14T13:03:55;29.60;58.60
10722;DHT22;5412;59.450;18.124;2023-06-14T13:06:21;29.40;58.10
10722;DHT22;5412;59.450;18.124;2023-06-14T13:08:50;29.70;58.30
10722;DHT22;5412;59.450;18.124;2023-06-14T13:11:16;29.70;58.30
10722;DHT22;5412;59.450;18.124;2023-06-14T13:13:42;29.80;57.90
10722;DHT22;5412;59.450;18.124;2023-06-14T13:16:07;29.90;58.10
10722;DHT22;5412;59.450;18.124;2023-06-14T13:18:33;30.10;58.10
10722;DHT22;5412;59.450;18.124;2023-06-14T13:20:59;29.90;58.00
10722;DHT22;5412;59.450;18.124;2023-06-14T13:23:26;30.10;58.10
10722;DHT22;5412;59.450;18.124;2023-06-14T13:25:52;30.30;57.10
10722;DHT22;5412;59.450;18.124;2023-06-14T13:28:18;30.50;57.20
10722;DHT22;5412;59.450;18.124;2023-06-14T13:30:44;30.50;56.50
10722;DHT22;5412;59.450;18.124;2023-06-14T13:33:10;30.60;56.30
10722;DHT22;5412;59.450;18.124;2023-06-14T13:35:36;30.70;56.40
10722;DHT22;5412;59.450;18.124;2023-06-14T13:38:02;31.10;55.50
10722;DHT22;5412;59.450;18.124;2023-06-14T13:40:28;31.40;55.30
10722;DHT22;5412;59.450;18.124;2023-06-14T13:42:54;31.10;54.60
10722;DHT22;5412;59.450;18.124;2023-06-14T13:45:20;31.10;55.00
10722;DHT22;5412;59.450;18.124;2023-06-14T13:47:46;31.20;54.70
10722;DHT22;5412;59.450;18.124;2023-06-14T13:50:14;31.50;54.80
10722;DHT22;5412;59.450;18.124;2023-06-14T13:52:43;31.50;55.20
10722;DHT22;5412;59.450;18.124;2023-06-14T13:55:09;31.40;54.20
10722;DHT22;5412;59.450;18.124;2023-06-14T13:57:35;31.80;54.20
10722;DHT22;5412;59.450;18.124;2023-06-14T14:00:01;32.10;53.40
10722;DHT22;5412;59.450;18.124;2023-06-14T14:02:30;32.40;53.50
10722;DHT22;5412;59.450;18.124;2023-06-14T14:04:56;32.20;53.60
10722;DHT22;5412;59.450;18.124;2023-06-14T14:07:23;32.30;52.90
10722;DHT22;5412;59.450;18.124;2023-06-14T14:09:49;32.20;52.70
10722;DHT22;5412;59.450;18.124;2023-06-14T14:12:19;32.20;52.80
10722;DHT22;5412;59.450;18.124;2023-06-14T14:14:47;32.20;52.40
10722;DHT22;5412;59.450;18.124;2023-06-14T14:17:13;32.40;52.00
10722;DHT22;5412;59.450;18.124;2023-06-14T14:19:39;32.20;51.40
10722;DHT22;5412;59.450;18.124;2023-06-14T14:22:09;32.00;52.10
10722;DHT22;5412;59.450;18.124;2023-06-14T14:24:35;31.80;51.70
10722;DHT22;5412;59.450;18.124;2023-06-14T14:27:06;31.90;51.80
10722;DHT22;5412;59.450;18.124;2023-06-14T14:29:36;32.30;52.20
10722;DHT22;5412;59.450;18.124;2023-06-14T14:32:02;32.30;51.50
10722;DHT22;5412;59.450;18.124;2023-06-14T14:34:28;32.20;51.60
10722;DHT22;5412;59.450;18.124;2023-06-14T14:36:54;32.50;51.40
10722;DHT22;5412;59.450;18.124;2023-06-14T14:39:19;32.50;51.00
10722;DHT22;5412;59.450;18.124;2023-06-14T14:41:46;32.60;51.20
10722;DHT22;5412;59.450;18.124;2023-06-14T14:44:12;32.50;51.20
10722;DHT22;5412;59.450;18.124;2023-06-14T14:46:43;32.80;50.60
10722;DHT22;5412;59.450;18.124;2023-06-14T14:49:10;32.80;50.60
10722;DHT22;5412;59.450;18.124;2023-06-14T14:51:35;32.70;50.40
10722;DHT22;5412;59.450;18.124;2023-06-14T14:54:04;32.80;50.80
10722;DHT22;5412;59.450;18.124;2023-06-14T14:56:30;33.10;50.40
10722;DHT22;5412;59.450;18.124;2023-06-14T14:58:55;33.40;49.80
10722;DHT22;5412;59.450;18.124;2023-06-14T15:01:21;33.80;49.50
10722;DHT22;5412;59.450;18.124;2023-06-14T15:03:48;33.90;49.20
10722;DHT22;5412;59.450;18.124;2023-06-14T15:06:14;33.80;48.60
10722;DHT22;5412;59.450;18.124;2023-06-14T15:08:39;33.80;49.30
10722;DHT22;5412;59.450;18.124;2023-06-14T15:11:05;33.70;49.70
10722;DHT22;5412;59.450;18.124;2023-06-14T15:13:32;33.80;48.60
10722;DHT22;5412;59.450;18.124;2023-06-14T15:15:57;34.10;48.80
10722;DHT22;5412;59.450;18.124;2023-06-14T15:18:23;34.30;48.00
10722;DHT22;5412;59.450;18.124;2023-06-14T15:20:49;33.90;47.70
10722;DHT22;5412;59.450;18.124;2023-06-14T15:23:15;33.60;48.50
10722;DHT22;5412;59.450;18.124;2023-06-14T15:25:46;33.80;48.40
10722;DHT22;5412;59.450;18.124;2023-06-14T15:28:17;33.40;48.20
10722;DHT22;5412;59.450;18.124;2023-06-14T15:30:43;34.00;47.90
10722;DHT22;5412;59.450;18.124;2023-06-14T15:33:08;34.30;47.80
10722;DHT22;5412;59.450;18.124;2023-06-14T15:35:34;34.40;47.20
10722;DHT22;5412;59.450;18.124;2023-06-14T15:38:00;34.30;47.10
10722;DHT22;5412;59.450;18.124;2023-06-14T15:40:26;34.40;47.10
10722;DHT22;5412;59.450;18.124;2023-06-14T15:42:53;34.80;46.90
10722;DHT22;5412;59.450;18.124;2023-06-14T15:45:19;35.10;46.90
10722;DHT22;5412;59.450;18.124;2023-06-14T15:47:44;34.60;46.60